Sunday, January 21, 2018, 3:36 PM EST
Back to Local

KLEB, Lebanon Municipal Airport

Location: Lebanon, NH, United States Lat: 43.633
Local Time: 3:36 PM EST (20:36 GMT) Lon: -72.3
Time Zone: US/Eastern Elev: 597 ft

Show me the last for .
Show Decoded

2018-01-21 14:53 METAR KLEB 211953Z 00000KT 10SM FEW110 06/M01 A3009 RMK AO2 SLP196 T00561006 =
2018-01-21 13:53 METAR KLEB 211853Z 00000KT 10SM OVC038 06/M01 A3008 RMK AO2 SLP193 T00561011 =
2018-01-21 12:53 METAR KLEB 211753Z 17003KT 10SM OVC037 06/M01 A3008 RMK AO2 SLP192 T00611011
                 10067 21011 58014 =
2018-01-21 11:53 METAR KLEB 211653Z 00000KT 10SM FEW039 06/M01 A3009 RMK AO2 SLP197 T00611011 =
2018-01-21 10:53 METAR KLEB 211553Z 00000KT 10SM CLR 04/M01 A3011 RMK AO2 SLP205 T00391006 =
2018-01-21 09:53 METAR KLEB 211453Z 00000KT 10SM FEW043 02/M01 A3012 RMK AO2 SLP207 T00221011
                 53022 =
2018-01-21 09:02 METAR KLEB 211402Z 00000KT 7SM FEW021 OVC038 00/M02 A3009 RMK AO2 T00001017 =
2018-01-21 08:53 METAR KLEB 211353Z 00000KT 8SM BKN021 BKN038 00/M02 A3009 RMK AO2 SLP198
                 T00001017 =
2018-01-21 07:53 METAR KLEB 211253Z 00000KT 7SM OVC022 M01/M02 A3008 RMK AO2 SLP192 T10061022 =
2018-01-21 06:53 METAR KLEB 211153Z 00000KT 6SM BR OVC025 M01/M02 A3005 RMK AO2 SLP185 I6000
                 T10111022 11011 21050 53013 =
2018-01-21 06:33 METAR KLEB 211133Z 00000KT 9SM BKN029 OVC035 M01/M03 A3005 RMK AO2 T10111028 =
2018-01-21 05:53 METAR KLEB 211053Z 00000KT 9SM OVC031 M01/M03 A3003 RMK AO2 SLP177 T10111028 =
2018-01-21 04:53 METAR KLEB 210953Z AUTO 00000KT 10SM OVC031 M01/M03 A3001 RMK AO2 SLP170
                 T10111028 =
2018-01-21 04:18 METAR KLEB 210918Z AUTO 18004KT 10SM OVC029 M02/M04 A3000 RMK AO2 T10221039 =
2018-01-21 03:53 METAR KLEB 210853Z AUTO 00000KT 9SM FEW030 BKN038 M04/M05 A2998 RMK AO2 SLP159
                 I1000 I3000 T10391050 51014 =
2018-01-21 02:53 METAR KLEB 210753Z AUTO 00000KT 8SM CLR M04/M05 A2997 RMK AO2 SLP157 I1000
                 T10391050 =
2018-01-21 01:53 METAR KLEB 210653Z AUTO 03006KT 9SM CLR M03/M04 A2996 RMK AO2 SLP152 I1000
                 T10281044 =
2018-01-21 00:53 METAR KLEB 210553Z AUTO 00000KT 9SM CLR M04/M05 A2994 RMK AO2 SLP145 I1000 I6000
                 T10391050 10050 21050 53012 =
2018-01-20 23:53 METAR KLEB 210453Z AUTO 00000KT 9SM CLR M03/M04 A2992 RMK AO2 SLP137 T10331044
                 400831044 =
2018-01-20 22:53 METAR KLEB 210353Z AUTO 00000KT 9SM FEW032 M02/M03 A2993 RMK AO2 SLP140
                 T10221033 =
2018-01-20 21:53 METAR KLEB 210253Z 00000KT 10SM CLR M02/M04 A2990 RMK AO2 SLP135 T10221039 51014
                 =
2018-01-20 20:53 METAR KLEB 210153Z 00000KT 10SM CLR M01/M03 A2989 RMK AO2 SLP130 T10111033 =
2018-01-20 19:53 METAR KLEB 210053Z 00000KT 10SM CLR 02/M03 A2988 RMK AO2 SLP126 T00171028 =
2018-01-20 18:53 METAR KLEB 202353Z 00000KT 10SM CLR 01/M03 A2986 RMK AO2 SLP120 T00111028 10083
                 20011 53048 =
2018-01-20 17:53 METAR KLEB 202253Z 00000KT 10SM CLR 02/M02 A2981 RMK AO2 SLP104 T00171022 =
2018-01-20 16:53 METAR KLEB 202153Z 29006KT 10SM CLR 06/M02 A2975 RMK AO2 PRESRR SLP081 T00611022
                 =
2018-01-20 15:53 METAR KLEB 202053Z VRB03KT 10SM CLR 08/M03 A2972 RMK AO2 SLP069 T00781028 53026
                 =

Support USWX by starting your Amazon purchase here.